NCAR-RAP Real-Time Weather Data

Output produced by METARs form (14 October 2019  22:34 UTC)
found at http://weather.rap.ucar.edu/surface/
 
KIPT 142154Z 26005KT 10SM CLR 17/03 A2997 RMK AO2 SLP149 T01720028
KIPT 142054Z 25016G20KT 10SM CLR 18/02 A2995 RMK AO2 SLP141 T01830022 55002
KIPT 141954Z 24013G19KT 10SM CLR 19/03 A2993 RMK AO2 SLP137 T01890028